createdAt,value
2019-05-01T00:01:53.587Z,55.57
2019-05-01T00:06:09.151Z,53.00
2019-05-01T00:10:12.181Z,52.03
2019-05-01T00:14:11.358Z,48.50
2019-05-01T00:18:09.912Z,48.07
2019-05-01T00:22:11.695Z,52.47
2019-05-01T00:26:10.273Z,59.70
2019-05-01T00:30:11.964Z,53.03
2019-05-01T00:34:10.740Z,55.73
2019-05-01T00:38:09.808Z,51.80
2019-05-01T00:42:08.560Z,49.57
2019-05-01T00:46:09.977Z,54.17
2019-05-01T00:50:09.822Z,54.47
2019-05-01T00:54:08.586Z,54.27
2019-05-01T00:58:09.435Z,61.17
2019-05-01T01:02:09.659Z,56.90
2019-05-01T01:06:11.486Z,58.83
2019-05-01T01:10:10.258Z,57.17
2019-05-01T01:14:11.327Z,54.83
2019-05-01T01:18:09.967Z,50.37
2019-05-01T01:22:08.545Z,48.70
2019-05-01T01:26:07.474Z,51.67
2019-05-01T01:30:11.700Z,51.50
2019-05-01T01:34:10.575Z,51.80
2019-05-01T01:38:11.604Z,53.63
2019-05-01T01:42:10.558Z,54.67
2019-05-01T01:46:28.638Z,52.07
2019-05-01T01:50:27.343Z,54.87
2019-05-01T01:54:26.293Z,55.43
2019-05-01T01:58:26.192Z,62.00
2019-05-01T02:02:37.976Z,55.20
2019-05-01T02:06:36.984Z,59.67
2019-05-01T02:10:42.967Z,59.70
2019-05-01T02:14:44.298Z,58.53
2019-05-01T02:18:43.224Z,60.70
2019-05-01T02:22:42.812Z,62.83
2019-05-01T02:26:51.022Z,63.43
2019-05-01T02:31:07.576Z,69.10
2019-05-01T02:35:07.523Z,70.77
2019-05-01T02:39:09.477Z,63.33
2019-05-01T02:43:13.193Z,54.57
2019-05-01T02:47:16.567Z,62.43
2019-05-01T02:51:16.137Z,57.77
2019-05-01T02:55:18.242Z,61.67
2019-05-01T02:59:18.546Z,54.13
2019-05-01T03:03:17.254Z,58.23
2019-05-01T03:07:21.022Z,62.93
2019-05-01T03:11:25.313Z,64.10
2019-05-01T03:15:25.047Z,58.57
2019-05-01T03:19:36.196Z,56.40
2019-05-01T03:23:37.355Z,59.80
2019-05-01T03:27:39.667Z,59.73
2019-05-01T03:31:39.811Z,65.43
2019-05-01T03:35:38.456Z,56.67
2019-05-01T03:39:38.942Z,54.43
2019-05-01T03:43:37.574Z,59.47
2019-05-01T03:47:36.307Z,63.33
2019-05-01T03:51:41.100Z,60.57
2019-05-01T03:55:45.761Z,63.30
2019-05-01T03:59:46.881Z,55.57
2019-05-01T04:03:55.234Z,76.37
2019-05-01T04:07:54.245Z,78.10
2019-05-01T04:11:52.860Z,84.83
2019-05-01T04:16:01.818Z,93.73
2019-05-01T04:19:55.729Z,95.27
2019-05-01T04:23:58.099Z,99.27
2019-05-01T04:28:04.549Z,91.33
2019-05-01T04:32:21.219Z,103.33
2019-05-01T04:36:33.155Z,109.00
2019-05-01T04:40:32.208Z,103.93
2019-05-01T04:44:37.870Z,98.03
2019-05-01T04:48:36.815Z,103.77
2019-05-01T04:52:35.740Z,117.07
2019-05-01T04:56:34.807Z,106.47
2019-05-01T05:00:34.060Z,106.77
2019-05-01T05:04:34.260Z,108.23
2019-05-01T05:08:33.613Z,132.20
2019-05-01T05:12:43.379Z,125.60
2019-05-01T05:16:56.049Z,111.87
2019-05-01T05:21:02.564Z,125.70
2019-05-01T05:25:01.600Z,135.67
2019-05-01T05:29:02.517Z,129.03
2019-05-01T05:33:03.394Z,123.87
2019-05-01T05:37:08.429Z,117.40
2019-05-01T05:41:23.506Z,131.97
2019-05-01T05:45:22.140Z,114.50
2019-05-01T05:49:24.180Z,108.80
2019-05-01T05:53:30.005Z,102.17
2019-05-01T05:57:33.315Z,108.77
2019-05-01T06:01:47.566Z,107.53
2019-05-01T06:05:59.963Z,111.87
2019-05-01T06:10:08.209Z,120.07
2019-05-01T06:14:31.314Z,113.87
2019-05-01T06:18:29.560Z,116.70
2019-05-01T06:22:35.464Z,112.80
2019-05-01T06:26:39.403Z,119.87
2019-05-01T06:30:42.065Z,117.83
2019-05-01T06:34:40.828Z,117.30
2019-05-01T06:38:56.176Z,116.57
2019-05-01T06:43:06.873Z,111.63
2019-05-01T06:47:23.490Z,117.80
2019-05-01T06:51:55.849Z,113.03
2019-05-01T06:55:54.866Z,106.77
2019-05-01T06:59:58.466Z,98.80
2019-05-01T07:04:03.488Z,110.07
2019-05-01T07:08:02.938Z,94.43
2019-05-01T07:12:07.963Z,102.90
2019-05-01T07:16:08.811Z,103.03
2019-05-01T07:20:16.854Z,112.23
2019-05-01T07:24:16.749Z,117.83
2019-05-01T07:28:20.098Z,112.97
2019-05-01T07:32:19.227Z,90.33
2019-05-01T07:36:18.236Z,107.20
2019-05-01T07:40:20.692Z,108.73
2019-05-01T07:44:19.962Z,101.30
2019-05-01T07:48:22.800Z,106.33
2019-05-01T07:52:26.376Z,110.73
2019-05-01T07:56:28.017Z,104.13
2019-05-01T08:00:37.006Z,108.80
2019-05-01T08:04:43.498Z,113.53
2019-05-01T08:08:45.067Z,115.50
2019-05-01T08:12:55.350Z,114.50
2019-05-01T08:16:58.205Z,119.90
2019-05-01T08:21:05.678Z,125.20
2019-05-01T08:25:06.727Z,137.37
2019-05-01T08:29:23.465Z,138.53
2019-05-01T08:33:40.544Z,131.60
2019-05-01T08:37:46.597Z,147.17
2019-05-01T08:41:49.966Z,146.03
2019-05-01T08:45:59.357Z,146.63
2019-05-01T08:50:00.437Z,143.20
2019-05-01T08:53:59.919Z,149.93
2019-05-01T08:58:01.053Z,146.33
2019-05-01T09:02:09.065Z,148.43
2019-05-01T09:05:59.526Z,143.87
2019-05-01T09:09:58.352Z,135.07
2019-05-01T09:14:00.078Z,151.07
2019-05-01T09:18:06.344Z,152.67
2019-05-01T09:22:08.427Z,144.27
2019-05-01T09:26:38.664Z,146.07
2019-05-01T09:30:41.454Z,140.37
2019-05-01T09:34:42.131Z,149.67
2019-05-01T09:38:40.795Z,137.93
2019-05-01T09:42:42.602Z,138.67
2019-05-01T09:46:44.366Z,136.73
2019-05-01T09:50:50.298Z,144.37
2019-05-01T09:55:00.598Z,145.80
2019-05-01T09:59:03.149Z,138.47
2019-05-01T10:03:02.185Z,155.20
2019-05-01T10:07:02.315Z,173.30
2019-05-01T10:11:05.154Z,166.63
2019-05-01T10:15:03.187Z,151.40
2019-05-01T10:19:01.743Z,170.00
2019-05-01T10:23:12.885Z,176.27
2019-05-01T10:27:08.302Z,175.40
2019-05-01T10:31:24.593Z,165.40
2019-05-01T10:35:42.447Z,172.57
2019-05-01T10:39:36.954Z,166.03
2019-05-01T10:43:38.913Z,148.83
2019-05-01T10:47:37.505Z,163.23
2019-05-01T10:51:36.147Z,171.83
2019-05-01T10:55:34.724Z,169.37
2019-05-01T10:59:37.755Z,139.93
2019-05-01T11:03:36.413Z,153.00
2019-05-01T11:07:38.127Z,158.30
2019-05-01T11:11:37.475Z,168.63
2019-05-01T11:15:38.884Z,166.53
2019-05-01T11:19:39.510Z,146.97
2019-05-01T11:23:40.106Z,154.90
2019-05-01T11:27:38.665Z,142.27
2019-05-01T11:31:44.778Z,147.67
2019-05-01T11:36:08.928Z,138.17
2019-05-01T11:40:04.897Z,138.80
2019-05-01T11:44:09.006Z,127.13
2019-05-01T11:48:10.695Z,132.47
2019-05-01T11:52:11.110Z,124.10
2019-05-01T11:56:09.718Z,134.03
2019-05-01T12:00:12.223Z,137.47
2019-05-01T12:04:10.968Z,130.57
2019-05-01T12:08:09.586Z,111.70
2019-05-01T12:12:16.356Z,137.43
2019-05-01T12:16:16.604Z,110.93
2019-05-01T12:20:16.735Z,134.17
2019-05-01T12:24:15.968Z,146.87
2019-05-01T12:28:16.096Z,139.20
2019-05-01T12:32:14.723Z,139.50
2019-05-01T12:36:15.862Z,140.07
2019-05-01T12:40:18.961Z,108.40
2019-05-01T12:44:19.207Z,131.37
2019-05-01T12:48:18.380Z,124.80
2019-05-01T12:52:49.681Z,126.10
2019-05-01T12:56:47.652Z,127.10
2019-05-01T13:00:54.225Z,98.13
2019-05-01T13:04:55.154Z,104.77
2019-05-01T13:08:56.476Z,117.07
2019-05-01T13:12:55.035Z,101.27
2019-05-01T13:16:53.754Z,129.93
2019-05-01T13:20:54.600Z,112.97
2019-05-01T13:24:54.712Z,113.97
2019-05-01T13:28:57.466Z,96.00
2019-05-01T13:32:57.085Z,117.00
2019-05-01T13:37:02.737Z,132.40
2019-05-01T13:40:57.695Z,119.27
2019-05-01T13:44:58.602Z,127.50
2019-05-01T13:49:02.985Z,124.17
2019-05-01T13:53:01.551Z,135.67
2019-05-01T13:57:01.936Z,141.47
2019-05-01T14:01:02.198Z,136.27
2019-05-01T14:05:00.926Z,141.17
2019-05-01T14:09:03.659Z,149.13
2019-05-01T14:13:02.450Z,133.80
2019-05-01T14:17:02.821Z,151.53
2019-05-01T14:21:09.778Z,143.97
2019-05-01T14:25:14.209Z,141.57
2019-05-01T14:29:12.763Z,152.00
2019-05-01T14:33:14.489Z,136.20
2019-05-01T14:37:15.276Z,135.33
2019-05-01T14:41:25.820Z,137.83
2019-05-01T14:45:27.423Z,136.07
2019-05-01T14:49:28.555Z,129.43
2019-05-01T14:53:30.047Z,126.93
2019-05-01T14:57:31.830Z,113.27
2019-05-01T15:01:30.614Z,108.77
2019-05-01T15:05:29.236Z,117.30
2019-05-01T15:09:29.769Z,111.17
2019-05-01T15:13:39.254Z,115.93
2019-05-01T15:17:39.757Z,120.00
2019-05-01T15:21:41.422Z,110.73
2019-05-01T15:25:47.917Z,103.80
2019-05-01T15:29:42.138Z,114.63
2019-05-01T15:33:40.785Z,103.67
2019-05-01T15:37:40.921Z,100.40
2019-05-01T15:41:52.904Z,88.07
2019-05-01T15:45:58.196Z,92.35
2019-05-01T15:49:52.162Z,82.30
2019-05-01T15:53:51.060Z,76.03
2019-05-01T15:57:49.719Z,86.50
2019-05-01T16:01:49.188Z,94.50
2019-05-01T16:05:49.451Z,88.77
2019-05-01T16:09:52.781Z,103.90
2019-05-01T16:13:55.582Z,76.73
2019-05-01T16:18:00.808Z,82.67
2019-05-01T16:21:59.372Z,89.23
2019-05-01T16:25:58.209Z,92.23
2019-05-01T16:29:58.983Z,87.23
2019-05-01T16:34:19.717Z,93.47
2019-05-01T16:38:30.418Z,84.90
2019-05-01T16:42:30.879Z,95.43
2019-05-01T16:46:29.711Z,89.77
2019-05-01T16:50:37.587Z,88.67
2019-05-01T16:54:42.462Z,89.87
2019-05-01T16:58:41.321Z,87.20
2019-05-01T17:02:43.500Z,90.53
2019-05-01T17:07:00.046Z,95.03
2019-05-01T17:11:01.192Z,87.77
2019-05-01T17:14:59.826Z,87.67
2019-05-01T17:18:58.923Z,89.23
2019-05-01T17:23:00.917Z,94.63
2019-05-01T17:26:59.933Z,87.30
2019-05-01T17:31:00.390Z,90.00
2019-05-01T17:35:01.813Z,85.40
2019-05-01T17:39:18.206Z,83.27
2019-05-01T17:43:16.712Z,84.97
2019-05-01T17:47:17.969Z,85.73
2019-05-01T17:51:20.852Z,83.83
2019-05-01T17:55:23.128Z,78.23
2019-05-01T17:59:22.491Z,86.67
2019-05-01T18:03:45.105Z,91.50
2019-05-01T18:07:46.868Z,83.43
2019-05-01T18:11:47.295Z,82.43
2019-05-01T18:15:51.994Z,91.60
2019-05-01T18:19:54.861Z,89.00
2019-05-01T18:24:11.138Z,85.10
2019-05-01T18:28:13.601Z,90.67
2019-05-01T18:32:28.178Z,86.77
2019-05-01T18:36:34.249Z,86.83
2019-05-01T18:40:34.518Z,89.30
2019-05-01T18:44:47.302Z,83.53
2019-05-01T18:48:48.712Z,88.93
2019-05-01T18:52:47.257Z,83.70
2019-05-01T18:56:54.594Z,95.50
2019-05-01T19:00:56.031Z,88.03
2019-05-01T19:04:54.764Z,94.83
2019-05-01T19:08:56.695Z,87.13
2019-05-01T19:12:58.699Z,89.93
2019-05-01T19:17:00.827Z,95.97
2019-05-01T19:21:01.935Z,93.30
2019-05-01T19:25:10.966Z,93.20
2019-05-01T19:29:03.552Z,95.23
2019-05-01T19:33:04.396Z,96.63
2019-05-01T19:37:22.085Z,103.70
2019-05-01T19:41:21.275Z,100.27
2019-05-01T19:45:19.955Z,103.50
2019-05-01T19:49:18.527Z,101.70
2019-05-01T19:53:20.027Z,101.77
2019-05-01T19:57:29.987Z,99.17
2019-05-01T20:01:28.956Z,104.03
2019-05-01T20:05:33.390Z,99.10
2019-05-01T20:09:31.367Z,106.00
2019-05-01T20:13:34.619Z,96.17
2019-05-01T20:17:33.686Z,98.00
2019-05-01T20:21:41.995Z,104.50
2019-05-01T20:25:51.000Z,101.67
2019-05-01T20:29:52.355Z,104.30
2019-05-01T20:33:50.936Z,98.10
2019-05-01T20:37:52.014Z,106.40
2019-05-01T20:41:54.139Z,105.93
2019-05-01T20:45:52.727Z,104.30
2019-05-01T20:49:51.295Z,105.73
2019-05-01T20:53:49.978Z,107.70
2019-05-01T20:57:49.837Z,100.13
2019-05-01T21:01:59.567Z,106.73
2019-05-01T21:06:07.729Z,106.37
2019-05-01T21:10:24.091Z,107.13
2019-05-01T21:14:21.987Z,109.57
2019-05-01T21:18:15.596Z,105.00
2019-05-01T21:22:17.793Z,104.43
2019-05-01T21:26:19.339Z,105.67
2019-05-01T21:30:23.673Z,102.53
2019-05-01T21:34:24.401Z,100.63
2019-05-01T21:38:23.415Z,109.60
2019-05-01T21:42:24.323Z,107.30
2019-05-01T21:46:23.841Z,114.57
2019-05-01T21:50:26.371Z,107.90
2019-05-01T21:54:23.067Z,105.27
2019-05-01T21:58:28.325Z,101.10
2019-05-01T22:02:26.425Z,107.33
2019-05-01T22:06:24.917Z,108.83
2019-05-01T22:10:26.588Z,111.33
2019-05-01T22:14:31.065Z,106.00
2019-05-01T22:18:34.085Z,116.23
2019-05-01T22:22:38.839Z,108.67
2019-05-01T22:26:46.097Z,111.27
2019-05-01T22:30:49.167Z,107.90
2019-05-01T22:34:50.203Z,106.87
2019-05-01T22:38:48.857Z,110.80
2019-05-01T22:42:47.516Z,113.40
2019-05-01T22:46:46.085Z,102.90
2019-05-01T22:51:04.237Z,106.13
2019-05-01T22:55:05.952Z,102.07
2019-05-01T22:59:05.373Z,104.87
2019-05-01T23:03:10.314Z,118.10
2019-05-01T23:07:11.660Z,110.53
2019-05-01T23:11:19.827Z,109.23
2019-05-01T23:15:24.088Z,111.37
2019-05-01T23:19:27.822Z,104.23
2019-05-01T23:23:27.256Z,106.07
2019-05-01T23:27:30.673Z,108.93
2019-05-01T23:31:33.125Z,104.80
2019-05-01T23:35:32.187Z,104.77
2019-05-01T23:39:39.719Z,110.27
2019-05-01T23:43:34.097Z,111.47
2019-05-01T23:47:32.706Z,110.60
2019-05-01T23:51:32.852Z,106.10
2019-05-01T23:55:31.425Z,110.73
2019-05-01T23:59:29.995Z,102.43
